Time;durP1;ratioP1;P1;durP2;ratioP2;P2;SDS_P1;SDS_P2;PMS_P1;PMS_P2;Temp;Humidity;BMP_temperature;BMP_pressure;BME280_temperature;BME280_humidity;BME280_pressure;Samples;Min_cycle;Max_cycle;Signal;HPM_P1;HPM_P2
2022/06/21 00:00:41;;;;;;;8.60;2.10;;;;;;;10.99;88.61;100870.61;108026;1277;71584;-84
2022/06/21 00:03:11;;;;;;;8.20;2.40;;;;;;;10.97;88.92;100868.63;107996;1277;71668;-84
2022/06/21 00:05:42;;;;;;;6.90;2.50;;;;;;;10.92;89.36;100866.83;107784;1279;64157;-84
2022/06/21 00:08:16;;;;;;;6.30;2.10;;;;;;;10.88;89.61;100865.80;107945;1280;60743;-83
2022/06/21 00:10:43;;;;;;;;;;;;;;;10.83;89.95;100870.36;107878;1278;75188;-84
2022/06/21 00:13:16;;;;;;;4.50;2.40;;;;;;;10.78;89.95;100871.63;107994;1278;72380;-84
2022/06/21 00:15:45;;;;;;;4.60;1.90;;;;;;;10.73;90.70;100870.77;107799;1279;72961;-85
2022/06/21 00:18:15;;;;;;;5.50;1.80;;;;;;;10.70;91.39;100871.10;107881;1279;62341;-85
2022/06/21 00:20:43;;;;;;;5.80;2.30;;;;;;;10.68;92.13;100869.39;107923;1278;61393;-84
2022/06/21 00:23:14;;;;;;;2.40;1.80;;;;;;;10.66;92.01;100868.73;108011;1277;75986;-84
2022/06/21 00:25:42;;;;;;;3.80;2.20;;;;;;;10.64;92.31;100870.56;107862;1279;70538;-84
2022/06/21 00:28:09;;;;;;;6.40;2.30;;;;;;;10.61;92.69;100871.96;107838;1281;72963;-85
2022/06/21 00:30:39;;;;;;;6.60;2.40;;;;;;;10.59;93.10;100875.16;107890;1279;62883;-84
2022/06/21 00:33:11;;;;;;;5.00;2.40;;;;;;;10.58;93.51;100878.83;108026;1279;60606;-84
2022/06/21 00:35:41;;;;;;;9.90;3.10;;;;;;;10.56;93.96;100879.21;107822;1279;75788;-84
2022/06/21 00:38:12;;;;;;;6.10;2.40;;;;;;;10.54;94.15;100884.91;108093;1279;71537;-84
2022/06/21 00:40:39;;;;;;;3.80;2.30;;;;;;;10.52;94.16;100883.48;108065;1277;73952;-85
2022/06/21 00:43:12;;;;;;;9.80;2.90;;;;;;;10.49;93.98;100880.18;107940;1279;63267;-84
2022/06/21 00:45:42;;;;;;;7.20;2.10;;;;;;;10.46;94.26;100873.82;107907;1279;60255;-84
2022/06/21 00:48:12;;;;;;;6.30;2.20;;;;;;;10.42;94.82;100872.23;108032;1278;76137;-85
2022/06/21 00:50:46;;;;;;;5.50;2.10;;;;;;;10.39;94.63;100870.83;107775;1278;72032;-84
2022/06/21 00:53:25;;;;;;;3.90;2.10;;;;;;;10.36;94.92;100869.45;108015;1278;72965;-84
2022/06/21 00:56:29;;;;;;;6.40;2.10;;;;;;;10.33;95.05;100868.89;107972;1278;62801;-85
2022/06/21 00:58:56;;;;;;;5.80;2.50;;;;;;;10.30;95.32;100865.27;107226;1284;60399;-84
2022/06/21 01:01:32;;;;;;;9.40;3.20;;;;;;;10.27;95.67;100866.29;107697;1279;74474;-84
2022/06/21 01:04:30;;;;;;;7.10;2.10;;;;;;;10.24;95.57;100863.06;107988;1277;71609;-84
2022/06/21 01:07:00;;;;;;;4.40;2.20;;;;;;;10.20;96.03;100862.25;107890;1278;72833;-84
2022/06/21 01:09:27;;;;;;;6.20;2.30;;;;;;;10.16;95.77;100858.45;107635;1279;65004;-84
2022/06/21 01:12:09;;;;;;;9.20;2.90;;;;;;;10.12;95.71;100856.59;107949;1279;61543;-84
2022/06/21 01:14:41;;;;;;;7.30;2.10;;;;;;;10.10;96.50;100857.35;107817;1279;75993;-84
2022/06/21 01:17:11;;;;;;;6.60;2.00;;;;;;;10.08;96.75;100860.27;108015;1278;71537;-84
2022/06/21 01:19:44;;;;;;;8.60;3.10;;;;;;;10.06;96.26;100854.11;107661;1281;74039;-84
2022/06/21 01:22:16;;;;;;;4.70;2.00;;;;;;;10.03;95.99;100847.73;108006;1278;62432;-84
2022/06/21 01:24:57;;;;;;;7.90;3.10;;;;;;;10.00;95.67;100849.62;107737;1279;60568;-84
2022/06/21 01:27:25;;;;;;;7.40;2.00;;;;;;;9.97;96.96;100854.86;107998;1279;75521;-84
2022/06/21 01:29:53;;;;;;;3.70;1.60;;;;;;;9.98;97.44;100860.49;107754;1280;71369;-84
2022/06/21 01:32:20;;;;;;;4.30;1.80;;;;;;;9.97;97.75;100859.15;107864;1279;74896;-84
2022/06/21 01:34:48;;;;;;;7.50;2.90;;;;;;;9.95;97.87;100859.32;108034;1280;62599;-84
2022/06/21 01:37:26;;;;;;;8.90;3.10;;;;;;;9.94;97.87;100866.17;108027;1279;61543;-84
2022/06/21 01:40:03;;;;;;;5.90;2.90;;;;;;;9.92;97.50;100867.65;108161;1279;75034;-84
2022/06/21 01:42:32;;;;;;;6.90;2.40;;;;;;;9.91;98.09;100866.35;108281;1280;71453;-84
2022/06/21 01:45:04;;;;;;;10.00;3.20;;;;;;;9.89;97.81;100869.38;108255;1278;72925;-84
2022/06/21 01:47:40;;;;;;;4.70;2.10;;;;;;;9.88;97.60;100872.70;107890;1278;62232;-84
2022/06/21 01:50:10;;;;;;;5.60;2.20;;;;;;;9.85;98.28;100878.64;107861;1280;60486;-84
2022/06/21 01:52:41;;;;;;;9.50;2.60;;;;;;;9.83;98.33;100879.93;107819;1278;77230;-83
2022/06/21 01:55:14;;;;;;;6.90;2.70;;;;;;;9.80;98.33;100878.27;107918;1279;71379;-84
2022/06/21 01:57:45;;;;;;;10.20;3.30;;;;;;;9.75;97.76;100884.79;107646;1281;73558;-84
2022/06/21 02:00:16;;;;;;;9.10;2.80;;;;;;;9.70;97.21;100882.71;107756;1278;62288;-84
2022/06/21 02:02:49;;;;;;;6.00;2.20;;;;;;;9.65;97.29;100870.91;108046;1278;60748;-84
2022/06/21 02:05:21;;;;;;;5.50;2.20;;;;;;;9.59;96.93;100860.23;108044;1278;74870;-84
2022/06/21 02:07:59;;;;;;;4.10;2.20;;;;;;;9.55;98.31;100857.50;107788;1279;73143;-83
2022/06/21 02:10:34;;;;;;;6.20;2.30;;;;;;;9.53;98.06;100861.20;107897;1279;73136;-84
2022/06/21 02:13:27;;;;;;;4.90;2.50;;;;;;;9.49;97.84;100870.27;107812;1279;62200;-84
2022/06/21 02:15:58;;;;;;;4.20;2.00;;;;;;;9.44;98.11;100877.34;107922;1278;60364;-84
2022/06/21 02:18:29;;;;;;;11.80;3.30;;;;;;;9.40;97.95;100878.52;108029;1277;75002;-84
2022/06/21 02:21:02;;;;;;;11.00;4.10;;;;;;;9.36;98.87;100878.52;107775;1279;71923;-84
2022/06/21 02:23:30;;;;;;;5.60;2.90;;;;;;;9.32;98.85;100873.83;107918;1279;74049;-84
2022/06/21 02:25:58;;;;;;;9.10;3.00;;;;;;;9.29;98.81;100871.39;108032;1279;62292;-84
2022/06/21 02:28:28;;;;;;;10.10;3.70;;;;;;;9.26;99.18;100874.86;107978;1280;60619;-84
2022/06/21 02:30:57;;;;;;;9.10;3.10;;;;;;;9.23;99.62;100875.54;108010;1278;76934;-84
2022/06/21 02:33:29;;;;;;;6.00;2.90;;;;;;;9.19;99.70;100874.52;108057;1279;72440;-84
2022/06/21 02:36:02;;;;;;;7.90;3.40;;;;;;;9.16;99.80;100872.38;107873;1280;74291;-84
2022/06/21 02:38:35;;;;;;;8.10;3.60;;;;;;;9.12;99.83;100873.55;107753;1281;62323;-84
2022/06/21 02:41:32;;;;;;;4.40;1.90;;;;;;;9.09;99.96;100869.23;108085;1279;60481;-84
2022/06/21 02:44:16;;;;;;;4.40;2.20;;;;;;;9.06;100.00;100860.35;108163;1278;76032;-83
2022/06/21 02:46:48;;;;;;;11.80;3.30;;;;;;;9.03;99.98;100853.46;108286;1278;71517;-84
2022/06/21 02:49:31;;;;;;;7.50;3.20;;;;;;;8.99;99.92;100847.30;108096;1279;73067;-84
2022/06/21 02:52:04;;;;;;;9.00;3.40;;;;;;;8.96;100.00;100858.17;108024;1279;63257;-84
2022/06/21 02:54:53;;;;;;;10.40;3.70;;;;;;;8.93;100.00;100855.84;107912;1278;61523;-84
2022/06/21 02:57:29;;;;;;;9.30;3.90;;;;;;;8.91;100.00;100852.69;107942;1277;75513;-83
2022/06/21 02:59:57;;;;;;;9.80;3.40;;;;;;;8.89;100.00;100858.02;108011;1278;73202;-83
2022/06/21 03:02:26;;;;;;;4.90;3.00;;;;;;;8.87;100.00;100854.94;107913;1279;76360;-83
2022/06/21 03:05:01;;;;;;;6.80;3.00;;;;;;;8.84;100.00;100857.43;107977;1278;61037;-83
2022/06/21 03:07:32;;;;;;;6.20;3.40;;;;;;;8.81;100.00;100855.94;108004;1278;60730;-84
2022/06/21 03:09:59;;;;;;;9.90;4.20;;;;;;;8.79;100.00;100856.97;107806;1280;74063;-84
2022/06/21 03:12:30;;;;;;;5.90;3.10;;;;;;;8.79;100.00;100860.15;108037;1279;71937;-83
2022/06/21 03:15:00;;;;;;;7.20;3.90;;;;;;;8.80;100.00;100865.91;107855;1279;73202;-84
2022/06/21 03:17:37;;;;;;;7.30;3.70;;;;;;;8.81;100.00;100868.09;107903;1280;62230;-84
2022/06/21 03:20:10;;;;;;;9.10;4.10;;;;;;;8.82;100.00;100865.36;108007;1278;61775;-84
2022/06/21 03:22:38;;;;;;;6.40;3.40;;;;;;;8.84;100.00;100864.61;108019;1279;73932;-84
2022/06/21 03:25:07;;;;;;;7.40;3.60;;;;;;;8.87;100.00;100865.02;107989;1279;72440;-84
2022/06/21 03:27:54;;;;;;;8.80;4.00;;;;;;;8.88;100.00;100868.73;107897;1278;73049;-84
2022/06/21 03:30:27;;;;;;;9.40;3.70;;;;;;;8.89;100.00;100873.23;107979;1278;63307;-84
2022/06/21 03:32:56;;;;;;;6.10;3.00;;;;;;;8.91;100.00;100875.35;107989;1279;60529;-84
2022/06/21 03:35:25;;;;;;;6.80;3.40;;;;;;;8.93;100.00;100869.83;107992;1279;76258;-84
2022/06/21 03:37:53;;;;;;;4.00;2.80;;;;;;;8.95;100.00;100863.59;107908;1280;72441;-84
2022/06/21 03:43:27;;;;;;;8.20;3.50;;;;;;;9.02;100.00;100856.96;107981;1278;62300;-84
2022/06/21 03:45:56;;;;;;;5.80;3.00;;;;;;;9.05;100.00;100856.94;107871;1279;59515;-84
2022/06/21 03:48:38;;;;;;;4.70;2.90;;;;;;;9.10;100.00;100862.91;107998;1279;74899;-85
2022/06/21 03:51:34;;;;;;;8.00;4.30;;;;;;;9.16;100.00;100862.70;107865;1280;71396;-84
2022/06/21 03:54:08;;;;;;;9.20;4.70;;;;;;;9.22;100.00;100865.38;107950;1280;72747;-84
2022/06/21 03:56:44;;;;;;;8.00;3.20;;;;;;;9.28;100.00;100866.33;107904;1280;63381;-84
2022/06/21 03:59:43;;;;;;;9.60;4.10;;;;;;;9.34;100.00;100866.77;108030;1278;61784;-84
2022/06/21 04:02:23;;;;;;;7.50;3.70;;;;;;;9.41;100.00;100864.77;107673;1279;74000;-84
2022/06/21 04:04:56;;;;;;;5.60;3.20;;;;;;;9.48;100.00;100867.95;107995;1278;72199;-84
2022/06/21 04:07:38;;;;;;;10.00;3.80;;;;;;;9.55;100.00;100864.85;108052;1278;74362;-84
2022/06/21 04:10:08;;;;;;;6.80;3.50;;;;;;;9.63;100.00;100867.23;108053;1278;62253;-84
2022/06/21 04:12:53;;;;;;;5.40;3.00;;;;;;;9.69;99.99;100875.59;107941;1278;60571;-84
2022/06/21 04:15:20;;;;;;;;;;;;;;;9.77;99.94;100878.77;108003;1280;74678;-84
2022/06/21 04:17:50;;;;;;;8.50;3.40;;;;;;;9.85;99.94;100880.08;108050;1279;71623;-84
2022/06/21 04:22:58;;;;;;;9.00;3.30;;;;;;;10.00;100.00;100885.34;107985;1279;63332;-83
2022/06/21 04:25:57;;;;;;;7.70;4.40;;;;;;;10.09;99.96;100876.91;107833;1279;62283;-81
2022/06/21 04:34:40;;;;;;;;;;;;;;;;;;;;;
2022/06/21 04:40:35;;;;;;;10.70;5.20;;;;;;;10.48;98.69;100877.15;108317;1279;60124;-88
2022/06/21 04:43:38;;;;;;;12.00;3.00;;;;;;;10.57;98.45;100878.20;108162;1279;75223;-87
2022/06/21 04:46:36;;;;;;;4.90;2.40;;;;;;;10.65;98.20;100869.09;107890;1279;71744;-87
2022/06/21 04:49:45;;;;;;;10.40;3.00;;;;;;;10.72;97.86;100863.96;107809;1278;71452;-87
2022/06/21 04:52:39;;;;;;;7.40;3.50;;;;;;;10.89;98.03;100859.85;107923;1279;63447;-86
2022/06/21 04:55:17;;;;;;;9.80;2.30;;;;;;;11.01;97.60;100862.81;107830;1281;61167;-86
2022/06/21 04:57:48;;;;;;;5.50;2.40;;;;;;;11.11;96.75;100868.43;108072;1280;75453;-87
2022/06/21 05:00:29;;;;;;;7.80;3.40;;;;;;;11.21;96.36;100866.09;108081;1280;72718;-87
2022/06/21 05:03:20;;;;;;;11.60;3.30;;;;;;;11.25;95.71;100872.93;108145;1278;74310;-86
2022/06/21 05:08:56;;;;;;;5.80;2.30;;;;;;;11.38;94.98;100888.92;108138;1277;60993;-87
2022/06/21 05:15:37;;;;;;;5.00;1.60;;;;;;;11.62;94.83;100878.06;108203;1277;69947;-88
2022/06/21 05:31:23;;;;;;;5.80;1.80;;;;;;;12.10;90.92;100889.75;108292;1269;74188;-85
2022/06/21 05:33:55;;;;;;;10.30;2.20;;;;;;;12.16;90.23;100893.29;107095;1279;62846;-86
2022/06/21 05:36:30;;;;;;;7.60;2.20;;;;;;;12.25;89.78;100899.08;108140;1277;60300;-86
2022/06/21 05:39:01;;;;;;;6.30;1.70;;;;;;;12.37;89.54;100896.57;107966;1279;76009;-85
2022/06/21 05:41:35;;;;;;;8.70;1.80;;;;;;;12.48;88.80;100898.77;108068;1278;70198;-85
2022/06/21 05:44:40;;;;;;;8.50;1.80;;;;;;;12.56;88.02;100888.52;107914;1279;75019;-85
2022/06/21 05:47:26;;;;;;;6.90;1.70;;;;;;;12.73;88.15;100897.69;108140;1278;61694;-86
2022/06/21 05:49:57;;;;;;;14.30;2.60;;;;;;;12.84;86.29;100901.68;108130;1279;62126;-85
2022/06/21 05:52:34;;;;;;;9.30;1.50;;;;;;;12.89;86.00;100899.29;108146;1279;75501;-85
2022/06/21 05:55:22;;;;;;;7.90;1.90;;;;;;;12.91;85.25;100898.87;107826;1281;70749;-85
2022/06/21 05:57:58;;;;;;;11.30;2.20;;;;;;;12.99;85.26;100901.09;107756;1281;73237;-84
2022/06/21 06:00:31;;;;;;;11.70;2.00;;;;;;;13.08;84.80;100901.32;107846;1281;60690;-84
2022/06/21 06:03:07;;;;;;;9.70;2.30;;;;;;;13.12;84.00;100906.27;107850;1281;60538;-85
2022/06/21 06:05:35;;;;;;;6.90;2.30;;;;;;;13.13;83.87;100914.05;107923;1279;75899;-85
2022/06/21 06:08:10;;;;;;;7.60;2.10;;;;;;;13.17;83.39;100915.33;107921;1279;71733;-85
2022/06/21 06:11:14;;;;;;;5.30;1.50;;;;;;;13.22;82.63;100921.95;107946;1279;73285;-85
2022/06/21 06:13:49;;;;;;;7.30;1.80;;;;;;;13.25;82.56;100920.85;107463;1281;63566;-85
2022/06/21 06:16:39;;;;;;;7.60;2.50;;;;;;;13.33;82.05;100920.87;108176;1279;59998;-85
2022/06/21 06:19:23;;;;;;;6.30;2.00;;;;;;;13.42;81.83;100923.29;108243;1279;74047;-85
2022/06/21 06:22:07;;;;;;;6.20;1.40;;;;;;;13.56;81.38;100927.16;108082;1281;71356;-85
2022/06/21 06:24:54;;;;;;;;;;;;;;;;;;;;;
2022/06/21 06:27:32;;;;;;;7.10;2.10;;;;;;;13.80;80.02;100927.65;107787;1281;63798;-86
2022/06/21 06:30:10;;;;;;;8.10;1.80;;;;;;;13.94;79.62;100927.70;107958;1279;60738;-85
2022/06/21 06:32:53;;;;;;;6.00;1.90;;;;;;;14.12;78.72;100927.98;107673;1279;76520;-85
2022/06/21 06:35:24;;;;;;;5.10;1.20;;;;;;;14.19;77.44;100929.67;107559;1281;72592;-85
2022/06/21 06:37:55;;;;;;;5.70;3.00;;;;;;;14.19;77.43;100931.15;107904;1279;73404;-85
2022/06/21 06:40:30;;;;;;;5.70;1.20;;;;;;;14.19;77.61;100925.77;107683;1273;63269;-86
2022/06/21 06:43:11;;;;;;;7.10;1.50;;;;;;;14.22;77.32;100925.64;107895;1279;59921;-86
2022/06/21 06:45:42;;;;;;;11.40;3.40;;;;;;;14.42;77.65;100926.27;108113;1278;77832;-87
2022/06/21 06:48:16;;;;;;;9.10;2.00;;;;;;;14.60;76.26;100930.48;108160;1279;72192;-86
2022/06/21 06:50:51;;;;;;;11.20;2.20;;;;;;;14.72;75.89;100932.30;107971;1279;71995;-86
2022/06/21 06:53:34;;;;;;;6.00;1.60;;;;;;;14.77;74.73;100933.77;107929;1281;62146;-86
2022/06/21 06:56:14;;;;;;;9.40;1.70;;;;;;;14.78;73.54;100936.16;107928;1279;62967;-86
2022/06/21 06:58:53;;;;;;;6.60;2.10;;;;;;;14.85;73.90;100935.82;107873;1279;74624;-86
2022/06/21 07:01:27;;;;;;;5.70;1.80;;;;;;;15.07;73.48;100938.15;108314;1279;71513;-86
2022/06/21 07:04:02;;;;;;;5.70;1.20;;;;;;;15.31;72.97;100947.46;108176;1279;71216;-86
2022/06/21 07:06:45;;;;;;;8.40;1.40;;;;;;;15.33;71.47;100950.63;108373;1280;62223;-87
2022/06/21 07:09:30;;;;;;;3.40;1.30;;;;;;;15.18;70.87;100952.19;108037;1281;60821;-87
2022/06/21 07:12:26;;;;;;;11.20;4.70;;;;;;;15.12;70.66;100948.77;108049;1281;75342;-88
2022/06/21 07:15:00;;;;;;;10.20;2.00;;;;;;;15.32;71.53;100947.70;108060;1279;71343;-87
2022/06/21 07:17:31;;;;;;;5.30;1.70;;;;;;;15.63;70.17;100950.86;107773;1279;74007;-87
2022/06/21 07:20:02;;;;;;;8.00;2.30;;;;;;;15.84;68.61;100949.02;108065;1281;65033;-87
2022/06/21 07:22:34;;;;;;;;;;;;;;;15.96;67.31;100947.36;108223;1279;61362;-86
2022/06/21 07:25:17;;;;;;;;;;;;;;;16.09;67.15;100946.42;108572;1279;75010;-86
2022/06/21 07:27:47;;;;;;;;;;;;;;;16.22;67.15;100940.58;108535;1280;71723;-87
2022/06/21 07:30:16;;;;;;;;;;;;;;;16.36;66.85;100943.67;108185;1281;73024;-87
2022/06/21 07:46:35;;;;;;;;;;;;;;;15.99;65.25;100948.19;107957;1279;60651;-87
2022/06/21 07:49:14;;;;;;;;;;;;;;;16.15;65.54;100944.73;107861;1279;61726;-88
2022/06/21 07:51:44;;;;;;;;;;;;;;;16.07;64.86;100944.00;107951;1280;74936;-89
2022/06/21 07:54:27;;;;;;;;;;;;;;;15.97;64.15;100947.23;107998;1279;71660;-88
2022/06/21 07:57:05;;;;;;;;;;;;;;;15.92;65.20;100948.79;107921;1279;72684;-88
2022/06/21 07:59:38;;;;;;;;;;;;;;;16.05;63.44;100944.81;107929;1279;60420;-88
2022/06/21 08:07:49;;;;;;;;;;;;;;;16.21;62.95;100948.48;107732;1279;71485;-89
2022/06/21 08:10:24;;;;;;;;;;;;;;;16.09;62.43;100948.27;107912;1280;73039;-88
2022/06/21 08:12:52;;;;;;;;;;;;;;;16.12;62.23;100951.33;107908;1279;61473;-89
2022/06/21 08:15:20;;;;;;;;;;;;;;;16.16;62.26;100947.29;107932;1279;61605;-89
2022/06/21 08:17:57;;;;;;;;;;;;;;;16.30;62.30;100950.21;107943;1279;75148;-87
2022/06/21 08:20:27;;;;;;;;;;;;;;;16.53;62.58;100953.58;107994;1279;72442;-88
2022/06/21 08:23:08;;;;;;;;;;;;;;;16.65;62.47;100955.13;107825;1279;71790;-89
2022/06/21 08:25:40;;;;;;;;;;;;;;;16.57;61.76;100957.20;108071;1279;59386;-87
2022/06/21 08:31:04;;;;;;;;;;;;;;;16.39;60.63;100952.84;108085;1268;73602;-87
2022/06/21 08:33:37;;;;;;;;;;;;;;;16.48;60.31;100947.77;108201;1277;71361;-87
2022/06/21 08:39:00;;;;;;;;;;;;;;;16.50;62.76;100958.36;108166;1277;60383;-90
2022/06/21 08:41:55;;;;;;;;;;;;;;;16.39;62.53;100958.41;108147;1278;60462;-87
2022/06/21 08:44:41;;;;;;;;;;;;;;;16.28;62.21;100954.34;108165;1279;76211;-88
2022/06/21 08:47:14;;;;;;;;;;;;;;;16.32;62.19;100947.54;103564;1277;5921893;-89
2022/06/21 08:49:47;;;;;;;;;;;;;;;16.39;61.55;100939.99;108170;1279;61560;-89
2022/06/21 08:55:24;;;;;;;;;;;;;;;16.56;61.28;100937.25;108220;1278;73904;-87
2022/06/21 08:58:11;;;;;;;;;;;;;;;16.65;61.48;100938.21;108057;1278;71568;-86
2022/06/21 09:00:48;;;;;;;;;;;;;;;16.79;60.63;100931.33;108133;1279;76230;-85
2022/06/21 09:03:18;;;;;;;;;;;;;;;16.89;60.24;100931.23;108204;1278;60499;-86
2022/06/21 09:11:34;;;;;;;;;;;;;;;17.39;58.49;100930.29;108033;1276;72408;-89
2022/06/21 09:14:18;;;;;;;;;;;;;;;17.40;57.58;100920.39;108046;1279;76877;-89
2022/06/21 09:16:45;;;;;;;;;;;;;;;17.51;56.03;100923.79;108123;1279;59941;-90
2022/06/21 09:19:27;;;;;;;;;;;;;;;17.51;55.52;100923.09;108009;1279;60242;-90
2022/06/21 09:22:03;;;;;;;;;;;;;;;17.59;56.44;100922.34;108010;1279;75005;-90
2022/06/21 09:24:39;;;;;;;;;;;;;;;17.71;57.00;100916.48;107874;1279;70616;-90
2022/06/21 09:27:10;;;;;;;;;;;;;;;17.85;56.54;100916.13;107774;1281;73096;-90
2022/06/21 09:29:57;;;;;;;;;;;;;;;17.87;56.01;100922.43;107585;1282;60138;-90
2022/06/21 09:32:43;;;;;;;;;;;;;;;17.86;56.68;100917.77;107776;1281;60558;-90
2022/06/21 09:35:13;;;;;;;;;;;;;;;17.85;55.81;100912.95;108008;1279;74812;-90
2022/06/21 09:37:49;;;;;;;;;;;;;;;17.83;54.20;100916.75;107825;1281;71862;-90
2022/06/21 09:40:36;;;;;;;;;;;;;;;17.90;55.16;100918.34;108058;1279;73034;-91
2022/06/21 09:43:44;;;;;;;;;;;;;;;17.91;54.87;100920.67;107945;1279;60254;-90
2022/06/21 09:46:12;;;;;;;;;;;;;;;17.97;55.82;100910.76;108014;1279;60124;-91
2022/06/21 09:48:46;;;;;;;;;;;;;;;18.11;56.20;100911.02;108243;1279;76276;-90
2022/06/21 09:51:31;;;;;;;;;;;;;;;18.35;55.53;100915.34;108553;1279;70094;-87
2022/06/21 09:54:02;;;;;;;;;;;;;;;18.49;53.58;100920.17;107917;1279;72156;-91
2022/06/21 09:56:40;;;;;;;;;;;;;;;18.51;52.16;100910.51;108005;1279;61259;-90
2022/06/21 09:59:18;;;;;;;;;;;;;;;18.56;51.81;100907.12;107656;1279;61338;-88
2022/06/21 10:01:58;;;;;;;;;;;;;;;18.65;51.39;100902.36;107738;1280;75444;-89
2022/06/21 10:04:41;;;;;;;;;;;;;;;18.80;50.87;100894.36;108060;1279;71925;-89
2022/06/21 10:07:10;;;;;;;;;;;;;;;18.93;50.00;100893.31;107927;1270;72818;-89
2022/06/21 10:09:55;;;;;;;;;;;;;;;18.94;49.73;100891.14;108186;1272;60577;-89
2022/06/21 10:12:36;;;;;;;;;;;;;;;18.94;50.21;100893.38;107856;1279;61392;-90
2022/06/21 10:15:23;;;;;;;;;;;;;;;18.99;51.08;100887.59;108080;1279;76058;-91
2022/06/21 10:17:50;;;;;;;;;;;;;;;19.04;51.75;100881.61;108009;1279;72281;-90
2022/06/21 10:20:24;;;;;;;;;;;;;;;19.17;51.87;100881.26;107998;1279;72982;-90
2022/06/21 10:22:58;;;;;;;;;;;;;;;19.37;52.13;100881.77;107761;1279;62282;-90
2022/06/21 10:25:27;;;;;;;;;;;;;;;19.57;51.47;100874.23;107896;1281;60228;-90
2022/06/21 10:28:10;;;;;;;;;;;;;;;19.63;49.47;100876.77;107951;1279;74999;-90
2022/06/21 10:30:39;;;;;;;;;;;;;;;19.64;49.48;100875.09;108027;1280;71499;-90
2022/06/21 10:33:17;;;;;;;;;;;;;;;19.73;49.81;100868.96;107818;1279;72903;-90
2022/06/21 10:35:55;;;;;;;;;;;;;;;19.91;49.77;100863.60;107859;1279;60706;-90
2022/06/21 10:38:55;;;;;;;;;;;;;;;20.12;48.69;100863.17;107842;1281;61605;-90
2022/06/21 10:41:40;;;;;;;;;;;;;;;20.24;45.73;100863.89;107515;1279;74955;-90
2022/06/21 10:44:24;;;;;;;;;;;;;;;20.27;45.42;100852.30;107913;1281;71609;-90
2022/06/21 10:49:29;;;;;;;;;;;;;;;20.52;45.55;100847.89;107843;1281;61434;-83
2022/06/21 10:52:03;;;;;;;;;;;;;;;20.62;45.56;100843.98;107851;1281;61274;-83
2022/06/21 10:54:47;;;;;;;;;;;;;;;20.70;44.16;100836.65;107880;1281;78168;-83
2022/06/21 10:57:32;;;;;;;;;;;;;;;20.75;44.53;100838.20;107754;1281;71910;-83
2022/06/21 11:03:27;;;;;;;;;;;;;;;20.84;44.61;100832.59;107861;1281;59134;-85
2022/06/21 11:05:53;;;;;;;;;;;;;;;20.95;44.80;100829.05;107630;1283;60674;-84
2022/06/21 11:08:20;;;;;;;;;;;;;;;21.03;44.28;100833.40;108032;1281;75688;-85
2022/06/21 11:10:50;;;;;;;;;;;;;;;21.07;43.75;100834.23;108108;1281;70284;-85
2022/06/21 11:13:18;;;;;;;;;;;;;;;21.12;44.06;100835.03;107905;1281;74620;-85
2022/06/21 11:15:53;;;;;;;;;;;;;;;21.17;44.23;100831.08;107823;1281;61493;-84
2022/06/21 11:18:20;;;;;;;;;;;;;;;21.23;44.14;100832.84;107788;1281;60188;-83
2022/06/21 11:21:04;;;;;;;;;;;;;;;21.32;44.14;100827.61;107797;1281;75642;-83
2022/06/21 11:23:34;;;;;;;;;;;;;;;21.46;43.33;100825.94;107767;1281;71246;-83
2022/06/21 11:26:19;;;;;;;;;;;;;;;21.60;42.94;100820.45;107817;1281;74322;-83
2022/06/21 11:29:12;;;;;;;;;;;;;;;21.81;43.69;100814.17;107623;1282;60310;-83
2022/06/21 11:31:45;;;;;;;4.60;1.00;;;;;;;21.98;42.07;100808.97;107799;1281;60269;-84
2022/06/21 11:34:40;;;;;;;2.90;0.70;;;;;;;22.03;41.62;100809.55;107756;1281;74725;-84
2022/06/21 11:37:15;;;;;;;2.00;0.80;;;;;;;22.09;41.20;100810.42;107763;1281;71442;-83
2022/06/21 11:40:05;;;;;;;3.00;0.80;;;;;;;22.17;41.64;100801.48;107792;1281;74122;-84
2022/06/21 11:42:58;;;;;;;3.60;1.10;;;;;;;22.41;41.38;100803.59;107808;1281;61996;-84
2022/06/21 11:45:41;;;;;;;6.10;1.00;;;;;;;22.50;39.52;100802.23;107798;1281;60808;-84
2022/06/21 11:48:26;;;;;;;3.70;1.20;;;;;;;22.52;39.91;100805.30;107825;1281;75093;-86
2022/06/21 11:51:11;;;;;;;1.80;0.40;;;;;;;22.52;39.43;100799.13;107984;1281;71618;-86
2022/06/21 11:53:41;;;;;;;5.60;1.30;;;;;;;22.73;40.65;100792.19;107790;1280;74787;-83
2022/06/21 11:56:18;;;;;;;2.90;1.40;;;;;;;22.91;39.84;100789.73;107946;1281;60772;-83
2022/06/21 11:59:04;;;;;;;3.10;0.90;;;;;;;23.04;39.42;100785.23;107921;1281;61783;-83
2022/06/21 12:02:09;;;;;;;5.40;0.90;;;;;;;23.21;40.20;100780.90;107826;1281;76013;-84
2022/06/21 12:05:06;;;;;;;3.60;0.70;;;;;;;23.49;39.23;100783.02;107569;1281;71410;-84
2022/06/21 12:08:02;;;;;;;3.30;1.60;;;;;;;23.74;38.16;100779.64;107653;1281;74328;-83
2022/06/21 12:10:49;;;;;;;2.20;0.60;;;;;;;24.06;37.53;100771.71;107656;1281;59712;-83
2022/06/21 12:13:44;;;;;;;2.70;1.20;;;;;;;24.65;37.50;100768.61;107852;1280;60701;-83
2022/06/21 12:16:26;;;;;;;2.80;0.80;;;;;;;25.17;34.70;100771.43;107774;1281;74941;-83
2022/06/21 12:18:58;;;;;;;4.50;0.90;;;;;;;25.62;34.77;100764.14;107806;1281;72739;-82
2022/06/21 12:21:29;;;;;;;4.60;1.50;;;;;;;26.06;33.46;100760.87;107673;1281;75508;-82
2022/06/21 12:24:00;;;;;;;3.60;1.10;;;;;;;26.39;32.54;100756.92;107759;1281;60683;-82
2022/06/21 12:26:30;;;;;;;3.40;0.70;;;;;;;26.80;31.81;100752.92;107745;1281;60558;-83
2022/06/21 12:29:00;;;;;;;3.40;1.00;;;;;;;27.14;31.07;100747.50;107609;1281;76426;-85
2022/06/21 12:31:43;;;;;;;5.80;1.20;;;;;;;27.46;29.84;100747.96;107893;1281;71182;-85
2022/06/21 12:34:19;;;;;;;4.30;0.70;;;;;;;27.70;28.77;100745.59;107611;1281;73080;-84
2022/06/21 12:37:18;;;;;;;3.40;1.00;;;;;;;27.83;28.05;100744.15;107673;1281;60722;-85
2022/06/21 12:40:28;;;;;;;3.00;0.60;;;;;;;28.21;29.08;100739.25;107781;1281;60779;-84
2022/06/21 12:43:00;;;;;;;3.70;0.70;;;;;;;28.78;28.39;100738.71;107901;1281;76387;-81
2022/06/21 12:45:56;;;;;;;3.30;0.60;;;;;;;29.21;26.80;100736.94;107852;1281;71423;-81
2022/06/21 12:48:44;;;;;;;4.40;0.60;;;;;;;29.65;26.09;100740.23;107842;1281;73831;-81
2022/06/21 12:51:29;;;;;;;4.90;0.70;;;;;;;29.81;26.04;100733.73;107815;1281;61838;-81
2022/06/21 12:53:56;;;;;;;3.30;0.90;;;;;;;30.17;26.47;100729.81;107992;1280;62237;-82
2022/06/21 12:56:55;;;;;;;2.80;0.80;;;;;;;30.58;24.95;100726.52;108396;1281;75124;-84
2022/06/21 12:59:42;;;;;;;3.30;0.70;;;;;;;30.92;23.71;100724.65;107971;1281;71428;-84
2022/06/21 13:02:30;;;;;;;2.20;0.50;;;;;;;31.14;22.96;100717.92;108428;1281;72115;-81
2022/06/21 13:05:23;;;;;;;3.90;0.60;;;;;;;31.89;22.36;100718.94;108446;1281;60564;-82
2022/06/21 13:08:15;;;;;;;4.00;0.70;;;;;;;32.97;21.39;100712.77;107750;1281;61058;-81
2022/06/21 13:10:59;;;;;;;3.30;0.70;;;;;;;33.48;20.30;100712.45;107839;1281;73999;-82
2022/06/21 13:13:31;;;;;;;3.90;0.80;;;;;;;33.63;20.31;100715.62;107699;1281;71144;-81
2022/06/21 13:16:11;;;;;;;4.40;0.90;;;;;;;33.57;20.21;100714.39;107896;1281;73017;-83
2022/06/21 13:19:11;;;;;;;1.90;0.60;;;;;;;33.39;21.17;100711.08;107789;1281;60062;-81
2022/06/21 13:22:23;;;;;;;3.20;0.50;;;;;;;33.17;21.10;100713.52;107818;1281;61869;-83
2022/06/21 13:25:08;;;;;;;1.60;0.80;;;;;;;32.99;22.09;100709.17;107836;1281;74602;-83
2022/06/21 13:27:46;;;;;;;2.40;0.50;;;;;;;32.82;21.75;100706.84;107916;1281;71584;-83
2022/06/21 13:30:30;;;;;;;3.60;0.80;;;;;;;32.63;21.95;100699.58;107929;1281;73400;-83
2022/06/21 13:33:21;;;;;;;1.20;0.50;;;;;;;32.37;22.29;100696.30;107778;1281;61999;-83
2022/06/21 13:36:13;;;;;;;2.60;0.60;;;;;;;32.37;22.74;100693.00;107972;1281;59616;-82
2022/06/21 13:38:57;;;;;;;5.80;0.90;;;;;;;32.18;22.46;100690.75;107691;1281;73711;-83
2022/06/21 13:44:32;;;;;;;3.60;0.70;;;;;;;31.68;22.57;100688.55;107897;1281;74334;-83
2022/06/21 13:47:06;;;;;;;2.30;0.60;;;;;;;31.98;23.14;100679.86;107529;1281;60680;-83